createdAt,value
2022-12-18T00:00:09.538Z,32.35
2022-12-18T00:02:43.359Z,31.30
2022-12-18T00:05:11.662Z,31.08
2022-12-18T00:07:39.926Z,29.55
2022-12-18T00:10:08.595Z,32.00
2022-12-18T00:12:36.752Z,31.13
2022-12-18T00:15:05.686Z,29.77
2022-12-18T00:17:33.896Z,27.42
2022-12-18T00:20:02.191Z,28.65
2022-12-18T00:22:30.343Z,30.98
2022-12-18T00:24:58.508Z,27.45
2022-12-18T00:27:29.491Z,26.77
2022-12-18T00:29:57.697Z,26.85
2022-12-18T00:32:26.406Z,26.08
2022-12-18T00:34:54.613Z,27.75
2022-12-18T00:37:22.837Z,30.27
2022-12-18T00:39:52.901Z,28.55
2022-12-18T00:42:58.503Z,31.40
2022-12-18T00:45:29.338Z,24.35
2022-12-18T00:47:58.410Z,26.63
2022-12-18T00:50:27.641Z,27.83
2022-12-18T00:52:55.869Z,25.50
2022-12-18T00:55:24.260Z,30.10
2022-12-18T00:57:53.520Z,26.83
2022-12-18T01:00:24.930Z,27.98
2022-12-18T01:02:53.360Z,28.00
2022-12-18T01:05:21.630Z,25.20
2022-12-18T01:07:49.831Z,28.08
2022-12-18T01:10:18.068Z,26.83
2022-12-18T01:12:46.683Z,27.75
2022-12-18T01:15:16.573Z,22.85
2022-12-18T01:17:45.355Z,25.98
2022-12-18T01:20:14.381Z,36.10
2022-12-18T01:22:42.601Z,32.00
2022-12-18T01:25:11.276Z,32.80
2022-12-18T01:27:42.068Z,33.22
2022-12-18T01:30:11.089Z,32.47
2022-12-18T01:32:39.304Z,33.42
2022-12-18T01:35:08.289Z,35.05
2022-12-18T01:37:36.466Z,36.63
2022-12-18T01:40:05.174Z,34.25
2022-12-18T01:42:33.426Z,33.33
2022-12-18T01:45:13.331Z,31.17
2022-12-18T01:47:51.675Z,30.92
2022-12-18T01:50:28.555Z,28.10
2022-12-18T01:53:13.994Z,34.25
2022-12-18T01:55:57.370Z,30.55
2022-12-18T01:58:33.833Z,29.27
2022-12-18T02:01:02.429Z,28.50
2022-12-18T02:03:30.779Z,24.45
2022-12-18T02:06:25.020Z,28.13
2022-12-18T02:09:07.365Z,30.00
2022-12-18T02:11:35.539Z,30.25
2022-12-18T02:14:28.382Z,28.83
2022-12-18T02:17:17.657Z,29.02
2022-12-18T02:20:00.961Z,24.50
2022-12-18T02:22:38.502Z,28.48
2022-12-18T02:25:31.298Z,26.48
2022-12-18T02:28:05.094Z,25.85
2022-12-18T02:30:36.780Z,31.65
2022-12-18T02:33:11.424Z,25.30
2022-12-18T02:35:42.846Z,27.02
2022-12-18T02:38:12.279Z,25.20
2022-12-18T02:40:43.293Z,23.92
2022-12-18T02:43:16.796Z,27.48
2022-12-18T02:45:57.916Z,26.88
2022-12-18T02:48:36.077Z,26.42
2022-12-18T02:51:25.359Z,28.92
2022-12-18T02:54:11.866Z,26.08
2022-12-18T02:56:52.783Z,26.10
2022-12-18T02:59:48.699Z,28.63
2022-12-18T03:02:19.939Z,25.48
2022-12-18T03:04:59.122Z,26.60
2022-12-18T03:07:45.873Z,24.15
2022-12-18T03:10:23.012Z,28.15
2022-12-18T03:13:03.076Z,33.17
2022-12-18T03:15:44.529Z,27.70
2022-12-18T03:18:26.923Z,27.48
2022-12-18T03:20:59.932Z,31.90
2022-12-18T03:26:08.110Z,26.58
2022-12-18T03:28:47.205Z,27.98
2022-12-18T03:31:17.677Z,31.00
2022-12-18T03:33:59.830Z,34.60
2022-12-18T03:36:36.506Z,29.52
2022-12-18T03:39:05.145Z,27.52
2022-12-18T03:42:06.777Z,26.92
2022-12-18T03:44:57.755Z,27.30
2022-12-18T03:47:26.045Z,26.55
2022-12-18T03:50:15.804Z,24.35
2022-12-18T03:53:01.447Z,26.73
2022-12-18T03:55:34.665Z,29.17
2022-12-18T03:58:08.860Z,31.52
2022-12-18T04:00:57.250Z,30.92
2022-12-18T04:03:27.228Z,36.08
2022-12-18T04:05:57.836Z,31.58
2022-12-18T04:08:27.346Z,32.25
2022-12-18T04:11:04.072Z,23.10
2022-12-18T04:13:37.505Z,24.40
2022-12-18T04:16:10.569Z,25.60
2022-12-18T04:18:42.522Z,23.65
2022-12-18T04:21:11.921Z,24.45
2022-12-18T04:23:40.486Z,21.30
2022-12-18T04:26:12.273Z,22.50
2022-12-18T04:29:02.232Z,20.58
2022-12-18T04:31:30.823Z,17.60
2022-12-18T04:33:59.909Z,20.52
2022-12-18T04:36:28.492Z,23.95
2022-12-18T04:38:57.400Z,21.27
2022-12-18T04:41:25.825Z,19.35
2022-12-18T04:43:55.582Z,23.60
2022-12-18T04:46:23.895Z,23.60
2022-12-18T04:48:52.141Z,19.10
2022-12-18T04:51:26.155Z,18.75
2022-12-18T04:53:55.333Z,23.63
2022-12-18T04:56:23.592Z,20.27
2022-12-18T04:58:51.768Z,23.27
2022-12-18T05:01:20.337Z,22.60
2022-12-18T05:03:48.676Z,19.35
2022-12-18T05:06:16.940Z,20.92
2022-12-18T05:08:45.221Z,22.65
2022-12-18T05:11:16.757Z,20.10
2022-12-18T05:13:45.839Z,22.38
2022-12-18T05:16:15.195Z,23.92
2022-12-18T05:18:43.516Z,23.30
2022-12-18T05:21:11.684Z,24.98
2022-12-18T05:23:40.375Z,19.90
2022-12-18T05:26:09.875Z,22.02
2022-12-18T05:28:40.943Z,21.13
2022-12-18T05:31:09.383Z,19.75
2022-12-18T05:33:38.743Z,19.48
2022-12-18T05:36:09.531Z,18.92
2022-12-18T05:38:39.219Z,21.02
2022-12-18T05:41:08.770Z,18.73
2022-12-18T05:43:39.319Z,20.85
2022-12-18T05:46:10.165Z,20.75
2022-12-18T05:48:38.391Z,22.73
2022-12-18T05:51:17.645Z,21.00
2022-12-18T05:53:46.141Z,18.20
2022-12-18T05:56:19.525Z,21.63
2022-12-18T05:58:52.437Z,19.83
2022-12-18T06:01:26.122Z,21.67
2022-12-18T06:03:54.756Z,23.33
2022-12-18T06:06:26.329Z,18.40
2022-12-18T06:08:55.665Z,23.08
2022-12-18T06:11:26.378Z,21.70
2022-12-18T06:13:59.306Z,22.80
2022-12-18T06:16:29.492Z,21.52
2022-12-18T06:19:02.369Z,19.52
2022-12-18T06:21:31.826Z,21.50
2022-12-18T06:24:00.934Z,20.40
2022-12-18T06:26:29.191Z,21.85
2022-12-18T06:28:57.428Z,21.42
2022-12-18T06:31:26.998Z,21.33
2022-12-18T06:33:55.250Z,17.65
2022-12-18T06:36:23.646Z,18.42
2022-12-18T06:38:51.993Z,23.77
2022-12-18T06:41:22.297Z,17.92
2022-12-18T06:43:51.268Z,20.55
2022-12-18T06:46:20.658Z,17.73
2022-12-18T06:48:50.850Z,19.98
2022-12-18T06:51:25.146Z,19.75
2022-12-18T06:53:53.414Z,18.70
2022-12-18T06:56:21.594Z,17.45
2022-12-18T06:58:49.778Z,19.77
2022-12-18T07:01:21.095Z,21.58
2022-12-18T07:03:53.082Z,18.42
2022-12-18T07:06:22.793Z,20.20
2022-12-18T07:08:52.294Z,19.75
2022-12-18T07:11:23.861Z,17.30
2022-12-18T07:13:53.256Z,17.80
2022-12-18T07:16:25.682Z,16.40
2022-12-18T07:18:56.511Z,20.05
2022-12-18T07:21:25.854Z,16.65
2022-12-18T07:23:54.406Z,19.38
2022-12-18T07:26:23.623Z,19.58
2022-12-18T07:28:55.507Z,16.67
2022-12-18T07:31:24.140Z,21.40
2022-12-18T07:33:53.262Z,20.55
2022-12-18T07:36:21.881Z,23.13
2022-12-18T07:38:52.556Z,18.55
2022-12-18T07:41:21.160Z,18.75
2022-12-18T07:43:49.950Z,18.20
2022-12-18T07:46:18.912Z,18.95
2022-12-18T07:48:49.797Z,21.92
2022-12-18T07:51:19.491Z,19.77
2022-12-18T07:53:52.254Z,21.42
2022-12-18T07:56:30.276Z,21.60
2022-12-18T07:59:00.118Z,18.70
2022-12-18T08:01:29.028Z,17.77
2022-12-18T08:03:58.645Z,19.52
2022-12-18T08:06:28.099Z,21.02
2022-12-18T08:08:57.438Z,14.95
2022-12-18T08:11:27.957Z,20.48
2022-12-18T08:13:56.889Z,17.17
2022-12-18T08:16:28.439Z,14.60
2022-12-18T08:18:57.188Z,17.67
2022-12-18T08:21:28.367Z,17.67
2022-12-18T08:23:58.916Z,16.98
2022-12-18T08:26:29.877Z,18.13
2022-12-18T08:29:00.297Z,18.85
2022-12-18T08:31:31.541Z,16.83
2022-12-18T08:33:59.849Z,20.23
2022-12-18T08:36:28.277Z,19.88
2022-12-18T08:39:00.406Z,17.48
2022-12-18T08:41:28.782Z,19.17
2022-12-18T08:44:17.867Z,16.02
2022-12-18T08:46:46.071Z,13.90
2022-12-18T08:49:15.564Z,17.33
2022-12-18T08:51:44.511Z,17.98
2022-12-18T08:54:14.687Z,20.02
2022-12-18T08:56:42.836Z,17.20
2022-12-18T08:59:15.949Z,19.30
2022-12-18T09:01:48.223Z,17.67
2022-12-18T09:04:16.827Z,17.50
2022-12-18T09:06:45.196Z,19.33
2022-12-18T09:09:14.308Z,19.15
2022-12-18T09:11:42.519Z,18.15
2022-12-18T09:14:11.302Z,18.73
2022-12-18T09:16:39.538Z,18.17
2022-12-18T09:19:07.794Z,22.67
2022-12-18T09:21:40.252Z,17.10
2022-12-18T09:24:14.396Z,17.63
2022-12-18T09:26:43.501Z,19.10
2022-12-18T09:29:16.807Z,16.20
2022-12-18T09:31:47.744Z,19.17
2022-12-18T09:34:17.015Z,16.48
2022-12-18T09:36:45.346Z,18.15
2022-12-18T09:39:13.538Z,19.55
2022-12-18T09:42:11.032Z,21.40
2022-12-18T09:44:47.488Z,19.92
2022-12-18T09:47:30.811Z,18.75
2022-12-18T09:50:03.060Z,16.45
2022-12-18T09:52:38.672Z,18.73
2022-12-18T09:55:36.662Z,18.52
2022-12-18T09:58:11.357Z,19.20
2022-12-18T10:00:39.729Z,19.98
2022-12-18T10:03:15.970Z,26.50
2022-12-18T10:05:54.868Z,22.60
2022-12-18T10:08:52.524Z,18.88
2022-12-18T10:11:29.210Z,20.45
2022-12-18T10:14:18.998Z,21.90
2022-12-18T10:17:27.475Z,19.27
2022-12-18T10:20:51.229Z,19.42
2022-12-18T10:23:22.033Z,24.88
2022-12-18T10:26:16.476Z,20.85
2022-12-18T10:28:45.948Z,20.30
2022-12-18T10:31:20.024Z,20.50
2022-12-18T10:33:48.926Z,21.08
2022-12-18T10:36:17.393Z,19.33
2022-12-18T10:38:45.637Z,20.80
2022-12-18T10:41:24.210Z,18.45
2022-12-18T10:44:11.978Z,20.13
2022-12-18T10:46:40.686Z,18.35
2022-12-18T10:49:22.404Z,19.98
2022-12-18T10:51:52.170Z,17.25
2022-12-18T10:54:24.978Z,18.83
2022-12-18T10:57:13.146Z,18.50
2022-12-18T10:59:56.051Z,18.92
2022-12-18T11:02:36.929Z,19.45
2022-12-18T11:05:30.309Z,18.60
2022-12-18T11:08:00.230Z,19.80
2022-12-18T11:10:33.916Z,20.90
2022-12-18T11:13:32.911Z,20.17
2022-12-18T11:16:01.468Z,25.15
2022-12-18T11:18:36.334Z,23.88
2022-12-18T11:21:12.889Z,20.92
2022-12-18T11:23:54.886Z,17.38
2022-12-18T11:26:36.873Z,22.33
2022-12-18T11:29:18.142Z,22.77
2022-12-18T11:31:47.446Z,21.63
2022-12-18T11:34:32.711Z,21.23
2022-12-18T11:37:04.540Z,22.85
2022-12-18T11:40:03.073Z,23.67
2022-12-18T11:42:42.534Z,20.13
2022-12-18T11:45:14.088Z,21.52
2022-12-18T11:48:12.758Z,21.17
2022-12-18T11:50:54.304Z,18.73
2022-12-18T11:53:23.067Z,23.10
2022-12-18T11:56:12.953Z,20.88
2022-12-18T11:58:44.148Z,21.00
2022-12-18T12:01:43.914Z,22.42
2022-12-18T12:04:50.140Z,23.40
2022-12-18T12:07:42.873Z,24.98
2022-12-18T12:10:30.049Z,22.65
2022-12-18T12:13:19.869Z,19.92
2022-12-18T12:15:48.076Z,17.40
2022-12-18T12:18:28.592Z,21.02
2022-12-18T12:21:14.630Z,23.25
2022-12-18T12:23:54.570Z,24.15
2022-12-18T12:27:00.972Z,21.10
2022-12-18T12:29:53.328Z,22.52
2022-12-18T12:32:34.028Z,25.52
2022-12-18T12:35:15.628Z,20.42
2022-12-18T12:38:02.470Z,18.33
2022-12-18T12:40:56.690Z,18.95
2022-12-18T12:43:49.619Z,16.20
2022-12-18T12:46:22.871Z,17.63
2022-12-18T12:48:58.612Z,18.42
2022-12-18T12:51:33.064Z,21.88
2022-12-18T12:54:03.885Z,14.70
2022-12-18T12:57:06.129Z,15.63
2022-12-18T13:00:05.495Z,18.05
2022-12-18T13:02:40.371Z,18.75
2022-12-18T13:05:21.293Z,19.67
2022-12-18T13:08:03.475Z,15.52
2022-12-18T13:10:36.404Z,15.68
2022-12-18T13:13:17.144Z,14.83
2022-12-18T13:16:08.588Z,17.25
2022-12-18T13:18:37.063Z,15.63
2022-12-18T13:21:33.764Z,14.68
2022-12-18T13:24:25.545Z,14.65
2022-12-18T13:26:54.590Z,14.75
2022-12-18T13:29:43.582Z,15.65
2022-12-18T13:32:28.332Z,17.05
2022-12-18T13:35:18.868Z,16.20
2022-12-18T13:37:55.789Z,15.40
2022-12-18T13:40:49.260Z,15.13
2022-12-18T13:43:25.411Z,13.07
2022-12-18T13:46:02.205Z,17.90
2022-12-18T13:48:34.261Z,14.63
2022-12-18T13:51:07.651Z,14.02
2022-12-18T13:53:56.557Z,16.90
2022-12-18T13:56:31.077Z,12.63
2022-12-18T13:59:19.989Z,14.48
2022-12-18T14:02:14.840Z,13.43
2022-12-18T14:04:47.715Z,11.63
2022-12-18T14:07:17.084Z,14.13
2022-12-18T14:10:12.146Z,14.00
2022-12-18T14:13:03.127Z,16.23
2022-12-18T14:15:35.007Z,14.52
2022-12-18T14:18:14.481Z,15.00
2022-12-18T14:20:49.258Z,15.32
2022-12-18T14:23:50.047Z,11.77
2022-12-18T14:26:34.179Z,11.43
2022-12-18T14:29:29.559Z,13.88
2022-12-18T14:32:18.941Z,15.27
2022-12-18T14:34:55.253Z,13.68
2022-12-18T14:37:26.000Z,17.77
2022-12-18T14:40:11.542Z,18.30
2022-12-18T14:42:40.102Z,18.80
2022-12-18T14:45:41.040Z,15.32
2022-12-18T14:48:23.417Z,16.75
2022-12-18T14:51:01.874Z,16.27
2022-12-18T14:53:37.979Z,16.23
2022-12-18T14:56:19.509Z,15.82
2022-12-18T14:58:54.023Z,16.33
2022-12-18T15:01:45.593Z,19.35
2022-12-18T15:04:36.210Z,19.63
2022-12-18T15:07:18.193Z,17.42
2022-12-18T15:10:08.700Z,19.80
2022-12-18T15:12:51.729Z,20.02
2022-12-18T15:15:35.258Z,21.52
2022-12-18T15:20:58.485Z,18.75
2022-12-18T15:23:32.793Z,18.02
2022-12-18T15:26:11.439Z,21.95
2022-12-18T15:28:47.715Z,20.25
2022-12-18T15:31:16.195Z,21.60
2022-12-18T15:34:00.573Z,23.98
2022-12-18T15:36:28.786Z,27.33
2022-12-18T15:39:05.255Z,30.92
2022-12-18T15:41:36.950Z,32.75
2022-12-18T15:44:24.804Z,21.77
2022-12-18T15:46:55.007Z,22.25
2022-12-18T15:49:23.421Z,24.67
2022-12-18T15:51:58.300Z,23.10
2022-12-18T15:54:45.138Z,24.58
2022-12-18T15:57:25.734Z,23.38
2022-12-18T15:59:57.496Z,24.48
2022-12-18T16:02:26.636Z,23.27
2022-12-18T16:04:55.230Z,22.42
2022-12-18T16:07:25.468Z,29.63
2022-12-18T16:09:55.846Z,24.58
2022-12-18T16:12:26.656Z,25.63
2022-12-18T16:14:54.912Z,21.05
2022-12-18T16:17:23.105Z,23.08
2022-12-18T16:19:51.914Z,24.70
2022-12-18T16:22:28.962Z,24.45
2022-12-18T16:24:58.279Z,23.80
2022-12-18T16:27:29.228Z,23.40
2022-12-18T16:29:57.454Z,26.35
2022-12-18T16:32:25.616Z,24.90
2022-12-18T16:34:53.842Z,22.95
2022-12-18T16:37:22.074Z,22.60
2022-12-18T16:39:50.473Z,26.50
2022-12-18T16:42:21.089Z,26.50
2022-12-18T16:44:50.582Z,32.05
2022-12-18T16:47:19.662Z,26.00
2022-12-18T16:49:51.732Z,27.02
2022-12-18T16:52:20.840Z,30.00
2022-12-18T16:54:49.149Z,24.92
2022-12-18T16:57:19.728Z,27.75
2022-12-18T16:59:50.001Z,29.55
2022-12-18T17:02:24.983Z,32.63
2022-12-18T17:04:59.646Z,26.92
2022-12-18T17:07:28.518Z,24.85
2022-12-18T17:09:57.252Z,31.85
2022-12-18T17:12:26.817Z,31.40
2022-12-18T17:14:54.992Z,28.35
2022-12-18T17:17:23.930Z,30.08
2022-12-18T17:19:53.175Z,34.70
2022-12-18T17:22:23.253Z,26.48
2022-12-18T17:24:51.633Z,29.90
2022-12-18T17:27:19.895Z,31.17
2022-12-18T17:29:48.988Z,34.88
2022-12-18T17:32:18.295Z,27.42
2022-12-18T17:34:48.872Z,30.83
2022-12-18T17:37:17.145Z,28.25
2022-12-18T17:39:45.388Z,30.33
2022-12-18T17:42:15.492Z,33.03
2022-12-18T17:44:45.090Z,37.55
2022-12-18T17:47:14.506Z,35.42
2022-12-18T17:49:42.731Z,33.70
2022-12-18T17:52:11.372Z,31.63
2022-12-18T17:54:41.952Z,29.85
2022-12-18T17:57:10.666Z,31.63
2022-12-18T17:59:38.877Z,36.70
2022-12-18T18:02:07.450Z,31.55
2022-12-18T18:04:36.685Z,31.88
2022-12-18T18:07:05.008Z,34.08
2022-12-18T18:09:33.334Z,29.85
2022-12-18T18:12:20.136Z,31.90
2022-12-18T18:14:48.492Z,30.77
2022-12-18T18:17:16.700Z,33.42
2022-12-18T18:19:48.010Z,32.33
2022-12-18T18:24:47.050Z,35.70
2022-12-18T18:27:15.447Z,35.85
2022-12-18T18:29:43.644Z,29.48
2022-12-18T18:32:11.900Z,34.65
2022-12-18T18:34:40.088Z,34.10
2022-12-18T18:37:09.352Z,31.15
2022-12-18T18:39:37.570Z,34.00
2022-12-18T18:42:05.947Z,36.92
2022-12-18T18:44:35.219Z,33.50
2022-12-18T18:47:03.631Z,37.20
2022-12-18T18:49:36.593Z,34.53
2022-12-18T18:52:05.260Z,37.88
2022-12-18T18:54:36.059Z,35.03
2022-12-18T18:57:26.263Z,35.15
2022-12-18T18:59:55.402Z,36.80
2022-12-18T19:02:23.719Z,35.55
2022-12-18T19:04:53.897Z,34.80
2022-12-18T19:07:30.371Z,38.45
2022-12-18T19:10:05.233Z,45.00
2022-12-18T19:12:53.703Z,36.35
2022-12-18T19:15:23.145Z,40.65
2022-12-18T19:17:51.399Z,38.58
2022-12-18T19:20:19.734Z,37.10
2022-12-18T19:22:55.787Z,42.97
2022-12-18T19:25:40.663Z,36.05
2022-12-18T19:28:21.545Z,40.65
2022-12-18T19:30:59.103Z,38.22
2022-12-18T19:33:44.856Z,41.88
2022-12-18T19:36:28.081Z,37.38
2022-12-18T19:38:59.379Z,35.50
2022-12-18T19:41:31.158Z,37.08
2022-12-18T19:44:00.156Z,34.95
2022-12-18T19:46:34.041Z,32.38
2022-12-18T19:49:02.381Z,29.95
2022-12-18T19:51:32.313Z,31.05
2022-12-18T19:54:02.151Z,31.05
2022-12-18T19:56:35.447Z,34.08
2022-12-18T20:01:36.443Z,32.78
2022-12-18T20:04:04.957Z,31.63
2022-12-18T20:06:36.277Z,31.30
2022-12-18T20:09:06.673Z,31.90
2022-12-18T20:11:38.849Z,30.27
2022-12-18T20:14:14.545Z,31.60
2022-12-18T20:16:52.380Z,32.40
2022-12-18T20:19:21.697Z,30.42
2022-12-18T20:21:50.341Z,32.47
2022-12-18T20:24:18.597Z,32.80
2022-12-18T20:26:46.750Z,33.35
2022-12-18T20:29:15.031Z,29.25
2022-12-18T20:31:43.461Z,33.50
2022-12-18T20:34:12.115Z,30.23
2022-12-18T20:36:41.168Z,34.70
2022-12-18T20:39:11.044Z,38.00
2022-12-18T20:41:41.665Z,38.70
2022-12-18T20:44:22.547Z,38.08
2022-12-18T20:46:58.161Z,38.65
2022-12-18T20:49:27.323Z,36.42
2022-12-18T20:51:57.592Z,40.42
2022-12-18T20:54:27.593Z,35.90
2022-12-18T20:56:56.867Z,33.90
2022-12-18T20:59:26.355Z,36.20
2022-12-18T21:01:55.035Z,32.97
2022-12-18T21:04:23.874Z,35.95
2022-12-18T21:07:00.726Z,37.63
2022-12-18T21:09:37.358Z,34.88
2022-12-18T21:12:48.254Z,36.75
2022-12-18T21:15:28.525Z,37.17
2022-12-18T21:17:57.223Z,39.33
2022-12-18T21:20:25.754Z,38.72
2022-12-18T21:22:54.064Z,42.80
2022-12-18T21:25:25.642Z,38.38
2022-12-18T21:27:57.068Z,43.38
2022-12-18T21:30:25.565Z,44.95
2022-12-18T21:32:53.700Z,43.50
2022-12-18T21:35:22.362Z,41.50
2022-12-18T21:37:52.670Z,43.10
2022-12-18T21:40:20.882Z,41.20
2022-12-18T21:43:07.701Z,45.13
2022-12-18T21:45:36.000Z,38.53
2022-12-18T21:48:04.281Z,43.60
2022-12-18T21:50:32.430Z,43.85
2022-12-18T21:53:00.680Z,38.47
2022-12-18T21:55:28.858Z,39.80
2022-12-18T21:57:57.473Z,41.08
2022-12-18T22:00:25.714Z,46.70
2022-12-18T22:03:17.034Z,35.95
2022-12-18T22:05:42.120Z,33.45
2022-12-18T22:08:10.754Z,30.63
2022-12-18T22:10:39.574Z,31.15
2022-12-18T22:13:08.350Z,31.13
2022-12-18T22:15:36.603Z,32.58
2022-12-18T22:18:05.043Z,30.13
2022-12-18T22:20:33.303Z,31.42
2022-12-18T22:23:05.648Z,28.90
2022-12-18T22:28:24.133Z,27.33
2022-12-18T22:30:55.140Z,31.40
2022-12-18T22:33:28.393Z,28.00
2022-12-18T22:35:56.708Z,31.48
2022-12-18T22:38:25.030Z,33.88
2022-12-18T22:40:54.434Z,39.22
2022-12-18T22:43:22.684Z,34.55
2022-12-18T22:45:50.957Z,30.58
2022-12-18T22:48:19.287Z,32.22
2022-12-18T22:50:47.428Z,30.98
2022-12-18T22:53:17.417Z,36.70
2022-12-18T22:55:45.589Z,37.95
2022-12-18T22:58:13.897Z,31.25
2022-12-18T23:00:43.996Z,32.25
2022-12-18T23:03:12.286Z,34.05
2022-12-18T23:05:40.540Z,33.65
2022-12-18T23:08:09.228Z,34.38
2022-12-18T23:10:40.666Z,31.65
2022-12-18T23:13:08.967Z,30.23
2022-12-18T23:15:42.987Z,35.47
2022-12-18T23:18:11.651Z,31.30
2022-12-18T23:20:40.005Z,36.78
2022-12-18T23:23:08.328Z,29.17
2022-12-18T23:25:36.791Z,31.42
2022-12-18T23:28:05.272Z,29.85
2022-12-18T23:30:33.703Z,26.67
2022-12-18T23:33:01.921Z,31.10
2022-12-18T23:35:30.623Z,32.10
2022-12-18T23:37:59.773Z,28.40
2022-12-18T23:40:29.886Z,33.20
2022-12-18T23:43:00.358Z,30.48
2022-12-18T23:45:28.871Z,31.85
2022-12-18T23:47:57.142Z,33.92
2022-12-18T23:50:28.760Z,30.38
2022-12-18T23:52:59.431Z,30.42
2022-12-18T23:55:38.574Z,32.35
2022-12-18T23:58:07.834Z,35.05
